Allendale, Massachusetts
Current Conditions -  °F | °C
As of 5:54 AM on Wednesday 26 Nov 2014 (Local Time) from KPSF Reporting Station
Scattered Clouds Scattered Clouds  
Wind Chill: 34°   Ceiling: Unl
Heat Index: 34°   Visibility: 10mi
Dew Point: 26°   Wind: 0mph
Humidity: 73%   Direction: NA
Pressure: 30.14"   Gusts: NA
Location:  42.4608°N, 73.282°W
Report Text: KPSF 261054Z AUTO 00000KT 10SM SCT110 01/M03 A3014 RMK AO2 SLP210 T00111033
Loading
Personal Weather Stations






























Interactive Weather Map New forecast layout! Learn more

10-Day Weather Forecast

Advertisements
Track Severe Weather on mobile